Time;durP1;ratioP1;P1;durP2;ratioP2;P2;SDS_P1;SDS_P2;PMS_P1;PMS_P2;Temp;Humidity;BMP_temperature;BMP_pressure;BME280_temperature;BME280_humidity;BME280_pressure;Samples;Min_cycle;Max_cycle;Signal;HPM_P1;HPM_P2
2020/12/19 00:02:21;;;;;;;21.58;5.50;;;;;;;;;;4826733;29;20023;-77
2020/12/19 00:04:48;;;;;;;16.23;5.63;;;;;;;;;;4826899;29;20664;-79
2020/12/19 00:07:14;;;;;;;19.23;5.65;;;;;;;;;;4810492;29;20038;-80
2020/12/19 00:09:41;;;;;;;17.27;6.00;;;;;;;;;;4810511;29;20056;-79
2020/12/19 00:12:07;;;;;;;17.00;6.03;;;;;;;;;;4826521;29;20031;-80
2020/12/19 00:14:33;;;;;;;24.33;6.22;;;;;;;;;;4826668;29;20040;-77
2020/12/19 00:17:00;;;;;;;25.80;6.70;;;;;;;;;;4826703;29;20026;-80
2020/12/19 00:19:26;;;;;;;21.83;6.20;;;;;;;;;;4826636;29;20090;-76
2020/12/19 00:21:52;;;;;;;18.08;6.03;;;;;;;;;;4826507;29;20110;-80
2020/12/19 00:24:19;;;;;;;26.85;6.85;;;;;;;;;;4810117;29;20038;-80
2020/12/19 00:26:45;;;;;;;17.40;6.57;;;;;;;;;;4810087;29;20046;-78
2020/12/19 00:29:13;;;;;;;20.50;6.90;;;;;;;;;;4809118;29;20035;-76
2020/12/19 00:31:39;;;;;;;23.70;7.28;;;;;;;;;;4826569;29;20041;-78
2020/12/19 00:34:07;;;;;;;19.17;7.25;;;;;;;;;;4826254;29;20461;-79
2020/12/19 00:36:33;;;;;;;22.90;7.72;;;;;;;;;;4826395;29;20045;-75
2020/12/19 00:38:59;;;;;;;21.98;7.82;;;;;;;;;;4826386;29;20042;-79
2020/12/19 00:41:26;;;;;;;24.25;9.13;;;;;;;;;;4826387;29;20030;-80
2020/12/19 00:43:53;;;;;;;27.85;9.00;;;;;;;;;;4809940;29;20083;-79
2020/12/19 00:46:20;;;;;;;30.35;9.30;;;;;;;;;;4825858;29;20341;-79
2020/12/19 00:48:47;;;;;;;23.77;9.10;;;;;;;;;;4825919;29;20046;-76
2020/12/19 00:51:14;;;;;;;28.02;9.10;;;;;;;;;;4809804;29;20034;-75
2020/12/19 00:53:43;;;;;;;20.67;8.10;;;;;;;;;;4826057;29;20389;-76
2020/12/19 00:56:27;;;;;;;39.25;10.05;;;;;;;;;;4809664;29;20030;-75
2020/12/19 00:58:54;;;;;;;27.98;8.65;;;;;;;;;;4809356;29;20038;-76
2020/12/19 01:01:21;;;;;;;28.17;9.90;;;;;;;;;;4809684;29;20531;-76
2020/12/19 01:03:48;;;;;;;26.08;8.45;;;;;;;;;;4825897;29;20054;-77
2020/12/19 01:06:18;;;;;;;24.33;8.50;;;;;;;;;;4809444;29;20083;-78
2020/12/19 01:08:45;;;;;;;26.67;8.60;;;;;;;;;;4809273;29;20418;-78
2020/12/19 01:11:15;;;;;;;22.85;8.05;;;;;;;;;;4809542;29;20029;-77
2020/12/19 01:13:42;;;;;;;22.63;7.47;;;;;;;;;;4826222;29;20062;-77
2020/12/19 01:16:08;;;;;;;23.23;8.38;;;;;;;;;;4825487;29;20034;-79
2020/12/19 01:18:35;;;;;;;28.50;8.57;;;;;;;;;;4809335;29;20030;-79
2020/12/19 01:21:02;;;;;;;24.30;8.55;;;;;;;;;;4809205;29;20034;-77
2020/12/19 01:23:28;;;;;;;20.40;5.95;;;;;;;;;;4825588;29;20031;-78
2020/12/19 01:25:54;;;;;;;24.38;8.93;;;;;;;;;;4809298;29;20026;-79
2020/12/19 01:28:20;;;;;;;22.85;8.57;;;;;;;;;;4825501;29;20404;-77
2020/12/19 01:30:47;;;;;;;33.10;10.20;;;;;;;;;;4825612;29;20485;-79
2020/12/19 01:33:13;;;;;;;24.48;8.52;;;;;;;;;;4825594;29;20034;-79
2020/12/19 01:35:39;;;;;;;28.73;9.68;;;;;;;;;;4825441;29;20034;-80
2020/12/19 01:38:06;;;;;;;24.40;9.23;;;;;;;;;;4825273;29;20035;-76
2020/12/19 01:40:32;;;;;;;25.60;8.90;;;;;;;;;;4825198;29;20485;-78
2020/12/19 01:42:58;;;;;;;33.72;10.38;;;;;;;;;;4808860;29;20034;-78
2020/12/19 01:45:24;;;;;;;25.35;9.52;;;;;;;;;;4809055;29;20368;-78
2020/12/19 01:47:50;;;;;;;25.95;9.45;;;;;;;;;;4809008;29;20046;-78
2020/12/19 01:50:17;;;;;;;27.95;10.07;;;;;;;;;;4824995;29;20620;-79
2020/12/19 01:52:43;;;;;;;26.58;9.63;;;;;;;;;;4825178;29;20477;-79
2020/12/19 01:55:09;;;;;;;34.05;11.02;;;;;;;;;;4825225;29;20031;-81
2020/12/19 01:57:40;;;;;;;31.15;9.27;;;;;;;;;;4825223;29;20030;-81
2020/12/19 02:00:06;;;;;;;26.70;9.25;;;;;;;;;;4808652;29;20091;-80
2020/12/19 02:02:33;;;;;;;32.35;10.98;;;;;;;;;;4825146;29;20031;-80
2020/12/19 02:04:59;;;;;;;27.27;8.23;;;;;;;;;;4824887;29;20041;-80
2020/12/19 02:07:25;;;;;;;35.90;10.05;;;;;;;;;;4824955;29;20042;-80
2020/12/19 02:09:52;;;;;;;31.63;10.07;;;;;;;;;;4825003;29;20134;-79
2020/12/19 02:12:18;;;;;;;31.33;10.93;;;;;;;;;;4825016;29;20065;-79
2020/12/19 02:14:45;;;;;;;36.50;11.38;;;;;;;;;;4808362;29;20030;-79
2020/12/19 02:17:12;;;;;;;25.38;10.40;;;;;;;;;;4824934;29;20039;-78
2020/12/19 02:19:39;;;;;;;33.78;11.07;;;;;;;;;;4808284;29;20038;-81
2020/12/19 02:22:06;;;;;;;33.83;10.93;;;;;;;;;;4808335;29;20129;-80
2020/12/19 02:24:33;;;;;;;29.45;10.93;;;;;;;;;;4824520;29;20109;-79
2020/12/19 02:27:00;;;;;;;25.23;9.55;;;;;;;;;;4808135;29;20062;-81
2020/12/19 02:29:30;;;;;;;28.65;11.23;;;;;;;;;;4824655;29;20111;-79
2020/12/19 02:31:57;;;;;;;33.10;11.68;;;;;;;;;;4808099;29;20066;-78
2020/12/19 02:34:24;;;;;;;32.45;11.52;;;;;;;;;;4824411;29;20031;-79
2020/12/19 02:36:50;;;;;;;31.67;10.98;;;;;;;;;;4824494;29;20034;-80
2020/12/19 02:39:16;;;;;;;34.15;11.80;;;;;;;;;;4824566;29;20034;-80
2020/12/19 02:41:44;;;;;;;26.83;10.40;;;;;;;;;;4824533;29;20030;-76
2020/12/19 02:44:14;;;;;;;19.42;7.55;;;;;;;;;;4807740;29;20049;-77
2020/12/19 02:46:41;;;;;;;28.02;10.25;;;;;;;;;;4807442;29;20088;-76
2020/12/19 02:49:07;;;;;;;28.58;9.77;;;;;;;;;;4824154;29;20387;-79
2020/12/19 02:51:34;;;;;;;26.27;11.43;;;;;;;;;;4807451;29;20480;-79
2020/12/19 02:54:00;;;;;;;32.47;10.30;;;;;;;;;;4824194;29;20026;-81
2020/12/19 02:56:26;;;;;;;19.70;7.07;;;;;;;;;;4824212;29;20067;-80
2020/12/19 02:58:53;;;;;;;25.88;8.70;;;;;;;;;;4824251;29;20385;-79
2020/12/19 03:01:19;;;;;;;22.95;7.55;;;;;;;;;;4824246;29;20106;-80
2020/12/19 03:03:45;;;;;;;21.75;9.32;;;;;;;;;;4807786;29;20438;-79
2020/12/19 03:06:12;;;;;;;30.40;10.52;;;;;;;;;;4807406;29;20043;-79
2020/12/19 03:08:38;;;;;;;30.55;10.00;;;;;;;;;;4824289;29;20026;-77
2020/12/19 03:11:04;;;;;;;31.88;11.13;;;;;;;;;;4824088;29;20030;-80
2020/12/19 03:13:30;;;;;;;29.55;9.93;;;;;;;;;;4807662;29;20062;-78
2020/12/19 03:15:57;;;;;;;32.40;9.32;;;;;;;;;;4807190;29;20034;-80
2020/12/19 03:18:23;;;;;;;23.23;6.30;;;;;;;;;;4824052;29;20030;-78
2020/12/19 03:20:49;;;;;;;29.30;9.55;;;;;;;;;;4824076;29;20031;-80
2020/12/19 03:23:15;;;;;;;37.65;11.15;;;;;;;;;;4824152;29;20218;-79
2020/12/19 03:25:42;;;;;;;30.15;8.73;;;;;;;;;;4807561;29;20030;-77
2020/12/19 03:28:08;;;;;;;33.92;9.80;;;;;;;;;;4823845;29;20046;-79
2020/12/19 03:30:34;;;;;;;29.17;10.35;;;;;;;;;;4807210;29;20098;-79
2020/12/19 03:33:00;;;;;;;39.25;10.88;;;;;;;;;;4823906;29;20392;-77
2020/12/19 03:35:27;;;;;;;40.20;10.32;;;;;;;;;;4807481;29;20396;-80
2020/12/19 03:37:53;;;;;;;40.75;10.82;;;;;;;;;;4823567;29;20465;-76
2020/12/19 03:40:20;;;;;;;21.75;8.75;;;;;;;;;;4823910;29;20031;-80
2020/12/19 03:42:47;;;;;;;28.95;8.93;;;;;;;;;;4823847;29;20109;-79
2020/12/19 03:45:13;;;;;;;28.60;11.13;;;;;;;;;;4823839;29;20041;-75
2020/12/19 03:47:39;;;;;;;32.70;10.25;;;;;;;;;;4823758;29;20560;-80
2020/12/19 03:50:05;;;;;;;35.78;12.10;;;;;;;;;;4803872;29;20503;-79
2020/12/19 03:52:31;;;;;;;34.05;10.15;;;;;;;;;;4803961;29;20080;-77
2020/12/19 03:54:57;;;;;;;31.58;10.82;;;;;;;;;;4804058;29;20093;-79
2020/12/19 03:57:24;;;;;;;32.13;9.77;;;;;;;;;;4805527;29;20477;-79
2020/12/19 03:59:50;;;;;;;32.80;10.38;;;;;;;;;;4805651;29;20038;-80
2020/12/19 04:02:16;;;;;;;30.70;9.70;;;;;;;;;;4805345;29;20473;-80
2020/12/19 04:04:43;;;;;;;34.72;9.85;;;;;;;;;;4808073;29;20151;-82
2020/12/19 04:07:11;;;;;;;37.90;10.25;;;;;;;;;;4808785;29;20042;-81
2020/12/19 04:09:37;;;;;;;36.97;12.23;;;;;;;;;;4807540;29;20027;-79
2020/12/19 04:12:03;;;;;;;24.80;9.40;;;;;;;;;;4807311;29;20060;-78
2020/12/19 04:14:39;;;;;;;41.63;10.70;;;;;;;;;;4808679;29;20144;-81
2020/12/19 04:17:09;;;;;;;34.75;10.90;;;;;;;;;;4807463;29;20126;-79
2020/12/19 04:19:36;;;;;;;34.53;10.18;;;;;;;;;;4807284;29;20070;-80
2020/12/19 04:22:03;;;;;;;36.95;11.48;;;;;;;;;;4808298;29;20034;-79
2020/12/19 04:24:29;;;;;;;31.48;10.77;;;;;;;;;;4808491;29;20106;-76
2020/12/19 04:26:56;;;;;;;24.20;9.25;;;;;;;;;;4808487;29;20038;-80
2020/12/19 04:29:22;;;;;;;37.90;10.63;;;;;;;;;;4808434;29;20030;-78
2020/12/19 04:31:48;;;;;;;24.50;7.35;;;;;;;;;;4807062;29;20035;-79
2020/12/19 04:34:14;;;;;;;29.60;9.30;;;;;;;;;;4807074;29;20031;-77
2020/12/19 04:36:41;;;;;;;36.88;11.57;;;;;;;;;;4807135;29;20038;-76
2020/12/19 04:39:07;;;;;;;28.17;7.70;;;;;;;;;;4808231;29;20026;-81
2020/12/19 04:41:34;;;;;;;33.97;10.75;;;;;;;;;;4808323;29;20027;-76
2020/12/19 04:44:02;;;;;;;28.58;9.15;;;;;;;;;;4806750;29;20034;-79
2020/12/19 04:46:31;;;;;;;31.05;9.60;;;;;;;;;;4807095;29;20446;-80
2020/12/19 04:48:58;;;;;;;34.45;10.45;;;;;;;;;;4813031;29;20073;-79
2020/12/19 04:51:28;;;;;;;26.13;8.85;;;;;;;;;;4826199;29;20113;-79
2020/12/19 04:53:55;;;;;;;34.83;10.10;;;;;;;;;;4809827;29;20111;-76
2020/12/19 04:56:23;;;;;;;32.17;9.73;;;;;;;;;;4825889;29;20035;-76
2020/12/19 04:58:53;;;;;;;31.35;10.15;;;;;;;;;;4809680;29;20622;-76
2020/12/19 05:01:20;;;;;;;30.52;10.02;;;;;;;;;;4809535;29;20062;-76
2020/12/19 05:03:47;;;;;;;30.13;8.98;;;;;;;;;;4809559;29;20034;-79
2020/12/19 05:06:16;;;;;;;34.25;9.93;;;;;;;;;;4809437;29;20034;-77
2020/12/19 05:08:42;;;;;;;26.50;9.70;;;;;;;;;;4809595;29;20030;-77
2020/12/19 05:11:09;;;;;;;28.20;8.13;;;;;;;;;;4825815;29;20037;-80
2020/12/19 05:13:35;;;;;;;27.98;9.65;;;;;;;;;;4825652;29;20109;-81
2020/12/19 05:16:03;;;;;;;24.50;8.15;;;;;;;;;;4825185;29;20030;-80
2020/12/19 05:18:30;;;;;;;30.75;7.93;;;;;;;;;;4809384;29;20034;-81
2020/12/19 05:20:56;;;;;;;34.08;9.45;;;;;;;;;;4825432;29;20101;-81
2020/12/19 05:23:23;;;;;;;24.40;7.50;;;;;;;;;;4809308;29;20484;-80
2020/12/19 05:25:49;;;;;;;33.13;10.15;;;;;;;;;;4825622;29;20030;-80
2020/12/19 05:28:15;;;;;;;30.15;9.63;;;;;;;;;;4825529;29;20046;-78
2020/12/19 05:30:42;;;;;;;25.38;8.00;;;;;;;;;;4809172;29;20121;-79
2020/12/19 05:33:11;;;;;;;25.27;9.65;;;;;;;;;;4825333;29;20035;-79
2020/12/19 05:35:37;;;;;;;30.77;10.15;;;;;;;;;;4809072;29;20028;-76
2020/12/19 05:38:05;;;;;;;29.95;9.10;;;;;;;;;;4809035;29;20079;-79
2020/12/19 05:40:32;;;;;;;36.15;10.05;;;;;;;;;;4809097;29;20037;-76
2020/12/19 05:42:58;;;;;;;35.70;10.07;;;;;;;;;;4825246;29;20041;-76
2020/12/19 05:45:25;;;;;;;28.58;8.35;;;;;;;;;;4825075;29;20370;-80
2020/12/19 05:47:52;;;;;;;34.17;10.80;;;;;;;;;;4825305;29;20158;-81
2020/12/19 05:50:19;;;;;;;36.67;9.52;;;;;;;;;;4825130;29;20050;-81
2020/12/19 05:52:45;;;;;;;34.13;9.57;;;;;;;;;;4825282;29;20034;-81
2020/12/19 05:55:13;;;;;;;41.67;10.77;;;;;;;;;;4825257;29;20034;-79
2020/12/19 05:57:39;;;;;;;35.88;9.77;;;;;;;;;;4824910;29;20030;-81
2020/12/19 06:00:10;;;;;;;21.58;7.78;;;;;;;;;;4825100;29;20080;-81
2020/12/19 06:02:37;;;;;;;29.63;9.20;;;;;;;;;;4808870;29;20130;-81
2020/12/19 06:05:08;;;;;;;32.47;8.90;;;;;;;;;;4825113;29;20354;-79
2020/12/19 06:07:36;;;;;;;33.67;9.60;;;;;;;;;;4808243;29;20122;-80
2020/12/19 06:10:03;;;;;;;27.95;8.45;;;;;;;;;;4825131;29;20035;-80
2020/12/19 06:12:37;;;;;;;32.58;10.00;;;;;;;;;;4825207;29;20515;-78
2020/12/19 06:15:03;;;;;;;;;;;;;;;;;;4808886;29;20037;-77
2020/12/19 06:17:37;;;;;;;34.00;8.45;;;;;;;;;;4824818;29;20272;-81
2020/12/19 06:20:05;;;;;;;38.40;8.25;;;;;;;;;;4808252;29;20026;-80
2020/12/19 06:22:31;;;;;;;28.30;8.85;;;;;;;;;;4807992;29;20038;-75
2020/12/19 06:24:59;;;;;;;41.72;10.82;;;;;;;;;;4824170;29;20053;-77
2020/12/19 06:27:26;;;;;;;26.17;9.10;;;;;;;;;;4807044;29;20095;-77
2020/12/19 06:29:53;;;;;;;29.15;7.30;;;;;;;;;;4824337;29;20147;-83
2020/12/19 06:32:20;;;;;;;36.67;9.75;;;;;;;;;;4808367;29;20039;-81
2020/12/19 06:35:05;;;;;;;32.42;9.38;;;;;;;;;;4808062;29;20426;-81
2020/12/19 06:37:32;;;;;;;41.55;10.05;;;;;;;;;;4808085;29;20105;-81
2020/12/19 06:40:13;;;;;;;38.95;10.10;;;;;;;;;;4824602;29;20030;-81
2020/12/19 06:42:40;;;;;;;33.03;9.35;;;;;;;;;;4807970;29;20027;-82
2020/12/19 06:45:35;;;;;;;27.45;7.95;;;;;;;;;;4824550;29;20037;-79
2020/12/19 06:48:01;;;;;;;31.35;8.80;;;;;;;;;;4816489;29;20057;-77
2020/12/19 06:50:46;;;;;;;29.20;7.90;;;;;;;;;;4804629;29;20685;-79
2020/12/19 06:53:16;;;;;;;21.00;7.22;;;;;;;;;;4805172;29;20038;-76
2020/12/19 06:55:42;;;;;;;30.83;8.52;;;;;;;;;;4806284;29;20031;-79
2020/12/19 06:58:08;;;;;;;24.70;7.80;;;;;;;;;;4804865;29;20034;-81
2020/12/19 07:00:35;;;;;;;29.17;7.22;;;;;;;;;;4804833;29;20031;-74
2020/12/19 07:03:02;;;;;;;23.92;7.53;;;;;;;;;;4804769;29;20099;-74
2020/12/19 07:05:29;;;;;;;29.83;8.50;;;;;;;;;;4804684;29;20027;-76
2020/12/19 07:08:14;;;;;;;32.45;9.23;;;;;;;;;;4804594;29;20039;-75
2020/12/19 07:10:41;;;;;;;31.83;10.63;;;;;;;;;;4805876;29;20061;-76
2020/12/19 07:13:07;;;;;;;36.92;10.55;;;;;;;;;;4806092;29;20059;-77
2020/12/19 07:15:46;;;;;;;29.33;8.32;;;;;;;;;;4805897;29;20088;-82
2020/12/19 07:18:27;;;;;;;29.38;8.52;;;;;;;;;;4804373;29;20034;-77
2020/12/19 07:21:00;;;;;;;35.65;10.05;;;;;;;;;;4804573;29;20039;-75
2020/12/19 07:23:30;;;;;;;25.20;8.98;;;;;;;;;;4804666;29;20027;-75
2020/12/19 07:25:57;;;;;;;28.85;10.10;;;;;;;;;;4804589;29;20044;-76
2020/12/19 07:28:23;;;;;;;32.40;10.27;;;;;;;;;;4805585;29;20043;-74
2020/12/19 07:30:49;;;;;;;21.10;7.25;;;;;;;;;;4805934;29;20094;-76
2020/12/19 07:33:15;;;;;;;15.90;5.70;;;;;;;;;;4804545;29;20035;-76
2020/12/19 07:35:41;;;;;;;18.73;6.38;;;;;;;;;;4805802;29;20103;-74
2020/12/19 07:38:08;;;;;;;20.33;6.35;;;;;;;;;;4804797;29;20027;-79
2020/12/19 07:40:34;;;;;;;26.52;6.13;;;;;;;;;;4808994;29;20027;-78
2020/12/19 07:43:04;;;;;;;14.45;5.60;;;;;;;;;;4809166;29;20034;-79
2020/12/19 07:45:30;;;;;;;16.52;6.75;;;;;;;;;;4807871;29;20035;-76
2020/12/19 07:47:56;;;;;;;16.50;4.90;;;;;;;;;;4809178;29;20446;-76
2020/12/19 07:50:24;;;;;;;12.63;4.97;;;;;;;;;;4824723;29;20054;-76
2020/12/19 07:52:58;;;;;;;13.48;3.95;;;;;;;;;;4827095;29;20133;-76
2020/12/19 07:55:24;;;;;;;15.57;5.05;;;;;;;;;;4826892;29;20042;-73
2020/12/19 07:57:54;;;;;;;14.73;3.53;;;;;;;;;;4826032;29;20077;-74
2020/12/19 08:00:20;;;;;;;14.27;4.85;;;;;;;;;;4810057;29;20393;-79
2020/12/19 08:02:46;;;;;;;21.60;5.80;;;;;;;;;;4810496;29;20480;-75
2020/12/19 08:05:12;;;;;;;13.43;4.30;;;;;;;;;;4810164;29;20090;-79
2020/12/19 08:07:38;;;;;;;9.38;3.45;;;;;;;;;;4809909;29;20046;-77
2020/12/19 08:10:04;;;;;;;13.52;3.92;;;;;;;;;;4810290;29;20037;-75
2020/12/19 08:12:31;;;;;;;13.05;3.95;;;;;;;;;;4810285;29;20041;-78
2020/12/19 08:14:58;;;;;;;15.10;4.43;;;;;;;;;;4810489;29;20065;-75
2020/12/19 08:17:25;;;;;;;13.68;3.38;;;;;;;;;;4810327;29;20046;-73
2020/12/19 08:19:52;;;;;;;12.45;4.03;;;;;;;;;;4825477;29;20030;-75
2020/12/19 08:22:19;;;;;;;15.38;3.80;;;;;;;;;;4809720;29;20038;-73
2020/12/19 08:24:47;;;;;;;11.95;4.78;;;;;;;;;;4825293;29;20114;-75
2020/12/19 08:27:31;;;;;;;15.85;4.60;;;;;;;;;;4809784;29;20129;-73
2020/12/19 08:30:05;;;;;;;14.85;3.92;;;;;;;;;;4825998;29;20041;-74
2020/12/19 08:32:31;;;;;;;10.82;3.20;;;;;;;;;;4810175;29;20087;-77
2020/12/19 08:34:58;;;;;;;11.10;2.97;;;;;;;;;;4810162;29;20046;-76
2020/12/19 08:37:24;;;;;;;13.02;3.70;;;;;;;;;;4809884;29;20036;-76
2020/12/19 08:40:07;;;;;;;11.68;4.00;;;;;;;;;;4826123;29;20042;-76
2020/12/19 08:42:33;;;;;;;12.02;3.97;;;;;;;;;;4809877;29;20022;-76
2020/12/19 08:45:18;;;;;;;11.15;3.10;;;;;;;;;;4808958;29;20030;-81
2020/12/19 08:47:45;;;;;;;9.27;3.90;;;;;;;;;;4809152;29;20061;-74
2020/12/19 08:50:11;;;;;;;10.80;4.70;;;;;;;;;;4824513;29;20077;-75
2020/12/19 08:52:38;;;;;;;9.15;3.63;;;;;;;;;;4826235;29;20034;-75
2020/12/19 08:55:04;;;;;;;10.68;3.70;;;;;;;;;;4809567;29;20113;-75
2020/12/19 08:57:33;;;;;;;13.25;3.67;;;;;;;;;;4825818;29;20034;-75
2020/12/19 09:00:13;;;;;;;10.07;3.65;;;;;;;;;;4809569;29;20037;-77
2020/12/19 09:02:39;;;;;;;12.05;4.07;;;;;;;;;;4826549;29;20030;-76
2020/12/19 09:05:06;;;;;;;12.98;4.40;;;;;;;;;;4809781;29;20038;-77
2020/12/19 09:07:32;;;;;;;14.65;3.88;;;;;;;;;;4809454;29;20049;-76
2020/12/19 09:09:58;;;;;;;13.43;4.63;;;;;;;;;;4825971;29;20037;-78
2020/12/19 09:12:25;;;;;;;15.48;4.95;;;;;;;;;;4826047;29;20102;-78
2020/12/19 09:14:51;;;;;;;13.05;4.50;;;;;;;;;;4825887;29;20031;-76
2020/12/19 09:17:30;;;;;;;10.70;3.67;;;;;;;;;;4825899;29;20045;-80
2020/12/19 09:20:00;;;;;;;18.63;5.25;;;;;;;;;;4822677;29;20042;-79
2020/12/19 09:22:26;;;;;;;13.57;5.07;;;;;;;;;;4818095;29;20109;-80
2020/12/19 09:24:53;;;;;;;15.60;5.10;;;;;;;;;;4825781;29;20488;-76
2020/12/19 09:27:19;;;;;;;13.38;4.15;;;;;;;;;;4825629;29;20046;-75
2020/12/19 09:29:45;;;;;;;13.38;4.07;;;;;;;;;;4825454;29;20384;-75
2020/12/19 09:32:11;;;;;;;18.15;5.35;;;;;;;;;;4824214;29;20066;-77
2020/12/19 09:34:37;;;;;;;16.52;5.00;;;;;;;;;;4823948;29;20399;-74
2020/12/19 09:37:04;;;;;;;16.85;5.10;;;;;;;;;;4825301;29;20030;-75
2020/12/19 09:39:30;;;;;;;15.20;5.25;;;;;;;;;;4825415;29;20037;-76
2020/12/19 09:41:56;;;;;;;14.18;4.18;;;;;;;;;;4823974;29;20038;-75
2020/12/19 09:44:22;;;;;;;13.88;4.75;;;;;;;;;;4824285;29;20030;-78
2020/12/19 09:46:48;;;;;;;11.63;4.60;;;;;;;;;;4808339;29;20129;-75
2020/12/19 09:49:14;;;;;;;19.60;5.38;;;;;;;;;;4824775;29;20057;-77
2020/12/19 09:51:41;;;;;;;15.40;4.75;;;;;;;;;;4825274;29;20037;-75
2020/12/19 09:54:07;;;;;;;16.58;4.90;;;;;;;;;;4825007;29;20030;-73
2020/12/19 09:56:37;;;;;;;19.33;5.07;;;;;;;;;;4824859;29;20038;-79
2020/12/19 09:59:04;;;;;;;22.95;6.15;;;;;;;;;;4824739;29;20307;-81
2020/12/19 10:01:30;;;;;;;15.27;5.80;;;;;;;;;;4808390;29;20034;-76
2020/12/19 10:03:56;;;;;;;19.38;7.05;;;;;;;;;;4824987;29;20034;-76
2020/12/19 10:06:22;;;;;;;20.30;5.95;;;;;;;;;;4824776;29;20495;-75
2020/12/19 10:08:48;;;;;;;14.85;4.68;;;;;;;;;;4824864;29;20030;-75
2020/12/19 10:11:19;;;;;;;20.77;5.55;;;;;;;;;;4824729;29;20105;-74
2020/12/19 10:13:46;;;;;;;18.83;5.22;;;;;;;;;;4808072;29;20041;-75
2020/12/19 10:16:12;;;;;;;21.30;5.45;;;;;;;;;;4824703;29;20484;-76
2020/12/19 10:18:38;;;;;;;23.05;6.97;;;;;;;;;;4824697;29;20366;-75
2020/12/19 10:21:08;;;;;;;20.10;6.60;;;;;;;;;;4824522;29;20045;-77
2020/12/19 10:23:34;;;;;;;22.23;6.97;;;;;;;;;;4807930;29;20121;-75
2020/12/19 10:26:03;;;;;;;20.35;6.70;;;;;;;;;;4808099;29;20042;-75
2020/12/19 10:28:30;;;;;;;20.13;6.60;;;;;;;;;;4807904;29;20038;-76
2020/12/19 10:30:56;;;;;;;20.63;6.63;;;;;;;;;;4808153;29;20037;-76
2020/12/19 10:33:22;;;;;;;15.68;5.22;;;;;;;;;;4824351;29;20034;-79
2020/12/19 10:35:49;;;;;;;19.98;6.55;;;;;;;;;;4824594;29;20357;-80
2020/12/19 10:38:15;;;;;;;16.52;4.35;;;;;;;;;;4807954;29;20041;-80
2020/12/19 10:40:42;;;;;;;17.48;6.38;;;;;;;;;;4808034;29;20031;-81
2020/12/19 10:43:08;;;;;;;18.17;6.63;;;;;;;;;;4807957;29;20473;-80
2020/12/19 10:45:34;;;;;;;18.85;6.65;;;;;;;;;;4824582;29;20039;-82
2020/12/19 10:48:00;;;;;;;15.05;6.10;;;;;;;;;;4824223;29;20058;-79
2020/12/19 10:50:27;;;;;;;18.70;6.00;;;;;;;;;;4824210;29;20115;-80
2020/12/19 10:52:53;;;;;;;12.32;3.95;;;;;;;;;;4824288;29;20030;-80
2020/12/19 10:55:19;;;;;;;17.77;5.80;;;;;;;;;;4824222;29;20102;-81
2020/12/19 10:57:46;;;;;;;20.23;5.00;;;;;;;;;;4824303;29;20473;-80
2020/12/19 11:00:12;;;;;;;20.63;6.68;;;;;;;;;;4807394;29;20030;-81
2020/12/19 11:02:39;;;;;;;13.18;4.75;;;;;;;;;;4824367;29;20114;-80
2020/12/19 11:05:05;;;;;;;13.75;4.40;;;;;;;;;;4807624;29;20481;-80
2020/12/19 11:07:31;;;;;;;10.55;3.92;;;;;;;;;;4824094;29;20106;-74
2020/12/19 11:09:58;;;;;;;19.30;4.60;;;;;;;;;;4824006;29;20105;-75
2020/12/19 11:12:24;;;;;;;11.82;3.75;;;;;;;;;;4824121;29;20030;-77
2020/12/19 11:14:50;;;;;;;10.75;3.25;;;;;;;;;;4829545;29;20115;-75
2020/12/19 11:17:16;;;;;;;14.30;4.70;;;;;;;;;;4829675;29;20158;-75
2020/12/19 11:19:43;;;;;;;12.70;3.85;;;;;;;;;;4813394;29;20117;-75
2020/12/19 11:22:09;;;;;;;17.30;4.95;;;;;;;;;;4813339;29;20537;-75
2020/12/19 11:24:35;;;;;;;16.85;5.18;;;;;;;;;;4829749;29;20026;-76
2020/12/19 11:27:02;;;;;;;17.05;5.63;;;;;;;;;;4829668;29;20121;-76
2020/12/19 11:29:28;;;;;;;17.73;6.03;;;;;;;;;;4829653;29;20033;-76
2020/12/19 11:31:55;;;;;;;17.13;5.95;;;;;;;;;;4829791;29;20091;-76
2020/12/19 11:34:22;;;;;;;18.50;6.10;;;;;;;;;;4829712;29;20504;-76
2020/12/19 11:36:49;;;;;;;16.90;6.30;;;;;;;;;;4813322;29;20126;-75
2020/12/19 11:39:15;;;;;;;17.85;6.03;;;;;;;;;;4829684;29;20485;-76
2020/12/19 11:41:42;;;;;;;18.20;5.97;;;;;;;;;;4829259;29;20034;-76
2020/12/19 11:44:10;;;;;;;22.02;7.53;;;;;;;;;;4829700;29;20081;-76
2020/12/19 11:46:37;;;;;;;29.02;9.38;;;;;;;;;;4813071;29;20049;-75
2020/12/19 11:49:03;;;;;;;36.70;11.18;;;;;;;;;;4829115;29;20054;-74
2020/12/19 11:51:33;;;;;;;29.58;9.93;;;;;;;;;;4812469;29;20027;-74
2020/12/19 11:54:00;;;;;;;30.88;10.85;;;;;;;;;;4829857;29;20038;-73
2020/12/19 11:56:26;;;;;;;33.30;9.57;;;;;;;;;;4829251;29;20033;-75
2020/12/19 11:58:52;;;;;;;23.17;7.38;;;;;;;;;;4812991;29;20087;-80
2020/12/19 12:01:19;;;;;;;20.48;6.80;;;;;;;;;;4813151;29;20030;-80
2020/12/19 12:03:45;;;;;;;17.02;7.15;;;;;;;;;;4829745;29;20052;-80
2020/12/19 12:06:11;;;;;;;29.35;9.02;;;;;;;;;;4829198;29;20042;-79
2020/12/19 12:08:41;;;;;;;17.90;7.03;;;;;;;;;;4829669;29;20026;-80
2020/12/19 12:11:08;;;;;;;27.88;8.90;;;;;;;;;;4829343;29;20030;-80
2020/12/19 12:13:34;;;;;;;20.70;7.15;;;;;;;;;;4829367;29;20080;-76
2020/12/19 12:16:00;;;;;;;24.52;6.93;;;;;;;;;;4829444;29;20504;-75
2020/12/19 12:18:27;;;;;;;11.07;5.18;;;;;;;;;;4829290;29;20090;-75
2020/12/19 12:20:53;;;;;;;19.35;7.00;;;;;;;;;;4829046;29;20027;-76
2020/12/19 12:23:19;;;;;;;23.20;7.35;;;;;;;;;;4829273;29;20042;-75
2020/12/19 12:25:46;;;;;;;16.83;4.97;;;;;;;;;;4827104;29;20109;-76
2020/12/19 12:28:12;;;;;;;21.30;7.32;;;;;;;;;;4825986;29;20042;-75
2020/12/19 12:30:38;;;;;;;21.55;7.70;;;;;;;;;;4809842;29;20046;-75
2020/12/19 12:33:04;;;;;;;26.40;8.48;;;;;;;;;;4826217;29;20035;-75
2020/12/19 12:35:31;;;;;;;14.23;4.65;;;;;;;;;;4826103;29;20030;-77
2020/12/19 12:37:57;;;;;;;26.90;7.30;;;;;;;;;;4826403;29;20061;-77
2020/12/19 12:40:23;;;;;;;26.83;8.40;;;;;;;;;;4825753;29;20531;-79
2020/12/19 12:42:50;;;;;;;24.27;7.43;;;;;;;;;;4809349;29;20053;-76
2020/12/19 12:45:16;;;;;;;28.27;5.63;;;;;;;;;;4810150;29;20091;-80
2020/12/19 12:47:42;;;;;;;30.42;8.07;;;;;;;;;;4809702;29;20064;-80
2020/12/19 12:50:09;;;;;;;22.80;7.13;;;;;;;;;;4825899;29;20465;-73
2020/12/19 12:52:35;;;;;;;19.88;7.53;;;;;;;;;;4809639;29;20113;-74
2020/12/19 12:55:01;;;;;;;19.92;7.47;;;;;;;;;;4825512;29;20039;-75
2020/12/19 12:57:27;;;;;;;22.35;8.00;;;;;;;;;;4809577;29;20461;-74
2020/12/19 12:59:53;;;;;;;24.23;7.53;;;;;;;;;;4809527;29;20031;-73
2020/12/19 13:02:19;;;;;;;20.40;7.68;;;;;;;;;;4809428;29;20034;-74
2020/12/19 13:04:46;;;;;;;17.77;6.88;;;;;;;;;;4809248;29;20031;-77
2020/12/19 13:07:13;;;;;;;17.95;7.35;;;;;;;;;;4809309;29;20042;-76
2020/12/19 13:09:39;;;;;;;25.75;7.88;;;;;;;;;;4809257;29;20038;-76
2020/12/19 13:12:05;;;;;;;20.30;6.63;;;;;;;;;;4825748;29;20490;-76
2020/12/19 13:14:31;;;;;;;23.17;7.43;;;;;;;;;;4825268;29;20477;-74
2020/12/19 13:16:57;;;;;;;21.50;7.50;;;;;;;;;;4825441;29;20030;-74
2020/12/19 13:19:24;;;;;;;25.23;8.00;;;;;;;;;;4808616;29;20490;-76
2020/12/19 13:21:50;;;;;;;24.25;7.57;;;;;;;;;;4825578;29;20481;-75
2020/12/19 13:24:16;;;;;;;25.73;8.88;;;;;;;;;;4824833;29;20030;-73
2020/12/19 13:26:46;;;;;;;22.67;7.80;;;;;;;;;;4824971;29;20420;-74
2020/12/19 13:29:12;;;;;;;24.38;8.27;;;;;;;;;;4821242;29;20503;-75
2020/12/19 13:31:43;;;;;;;25.42;7.40;;;;;;;;;;4808464;29;20026;-73
2020/12/19 13:34:09;;;;;;;23.02;7.07;;;;;;;;;;4808901;29;20500;-76
2020/12/19 13:36:35;;;;;;;24.45;7.53;;;;;;;;;;4808186;29;20091;-76
2020/12/19 13:39:01;;;;;;;24.58;7.85;;;;;;;;;;4825172;29;20389;-75
2020/12/19 13:41:28;;;;;;;21.83;7.07;;;;;;;;;;4808120;29;20034;-73
2020/12/19 13:43:54;;;;;;;17.75;7.00;;;;;;;;;;4824653;29;20102;-74
2020/12/19 13:46:20;;;;;;;18.77;6.40;;;;;;;;;;4808248;29;20388;-73
2020/12/19 13:48:46;;;;;;;17.60;6.38;;;;;;;;;;4807809;29;20062;-73
2020/12/19 13:51:12;;;;;;;28.75;7.88;;;;;;;;;;4824575;29;20018;-73
2020/12/19 13:53:38;;;;;;;21.30;7.82;;;;;;;;;;4828926;29;20106;-79
2020/12/19 13:56:04;;;;;;;15.23;6.30;;;;;;;;;;4823325;29;20022;-76
2020/12/19 13:58:30;;;;;;;14.70;5.82;;;;;;;;;;4833492;29;20075;-74
2020/12/19 14:01:02;;;;;;;28.95;8.48;;;;;;;;;;4823304;29;20038;-74
2020/12/19 14:03:28;;;;;;;25.13;8.57;;;;;;;;;;4833628;29;20365;-73
2020/12/19 14:05:54;;;;;;;23.45;7.38;;;;;;;;;;4823449;29;20035;-75
2020/12/19 14:08:20;;;;;;;33.35;9.15;;;;;;;;;;4823530;29;20046;-73
2020/12/19 14:10:46;;;;;;;24.50;8.18;;;;;;;;;;4816621;29;20053;-74
2020/12/19 14:13:12;;;;;;;19.10;6.80;;;;;;;;;;4823385;29;20030;-75
2020/12/19 14:15:42;;;;;;;30.63;10.23;;;;;;;;;;4807729;29;20027;-75
2020/12/19 14:18:08;;;;;;;33.90;10.82;;;;;;;;;;4822343;29;20128;-80
2020/12/19 14:20:34;;;;;;;15.77;6.65;;;;;;;;;;4807521;29;20023;-75
2020/12/19 14:23:01;;;;;;;26.48;9.05;;;;;;;;;;4816712;29;20124;-73
2020/12/19 14:25:27;;;;;;;20.45;7.20;;;;;;;;;;4823369;29;20091;-79
2020/12/19 14:27:53;;;;;;;31.40;9.30;;;;;;;;;;4832480;29;20049;-76
2020/12/19 14:30:19;;;;;;;26.00;7.93;;;;;;;;;;4824288;29;20025;-78